Time;durP1;ratioP1;P1;durP2;ratioP2;P2;SDS_P1;SDS_P2;PMS_P1;PMS_P2;Temp;Humidity;BMP_temperature;BMP_pressure;BME280_temperature;BME280_humidity;BME280_pressure;Samples;Min_cycle;Max_cycle;Signal;HPM_P1;HPM_P2
2022/10/13 00:00:29;;;;;;;2.47;1.35;;;;;;;17.72;100.00;99928.88;7399794;19;20014;-52
2022/10/13 00:02:58;;;;;;;5.35;1.45;;;;;;;17.93;100.00;99936.41;7399880;19;20037;-52
2022/10/13 00:05:24;;;;;;;7.88;1.40;;;;;;;17.95;100.00;99936.66;7394600;19;20011;-52
2022/10/13 00:07:50;;;;;;;1.23;0.85;;;;;;;18.11;100.00;99935.00;7397544;19;20370;-52
2022/10/13 00:10:17;;;;;;;2.28;1.30;;;;;;;18.20;100.00;99934.66;7397728;19;20010;-52
2022/10/13 00:12:43;;;;;;;4.35;1.15;;;;;;;18.03;100.00;99939.69;7395495;19;20593;-53
2022/10/13 00:15:10;;;;;;;3.58;1.50;;;;;;;17.90;100.00;99928.25;7395419;19;20010;-53
2022/10/13 00:17:36;;;;;;;4.07;0.98;;;;;;;17.97;100.00;99928.47;7396774;19;20018;-53
2022/10/13 00:20:04;;;;;;;1.60;1.48;;;;;;;17.94;100.00;99934.38;7396814;19;20027;-53
2022/10/13 00:22:31;;;;;;;2.50;1.30;;;;;;;17.94;100.00;99932.31;7395709;19;20010;-53
2022/10/13 00:24:57;;;;;;;4.82;1.20;;;;;;;17.93;100.00;99930.03;7394751;19;20115;-53
2022/10/13 00:27:24;;;;;;;3.30;1.55;;;;;;;17.99;100.00;99931.53;7394990;19;20041;-53
2022/10/13 00:29:50;;;;;;;4.60;1.33;;;;;;;17.86;100.00;99934.19;7394927;19;20086;-53
2022/10/13 00:32:17;;;;;;;2.60;0.80;;;;;;;18.03;100.00;99923.53;7395270;19;20022;-54
2022/10/13 00:34:43;;;;;;;3.67;1.50;;;;;;;18.33;100.00;99934.03;7394688;19;20007;-53
2022/10/13 00:37:09;;;;;;;0.95;0.80;;;;;;;18.44;100.00;99931.91;7396300;19;20010;-53
2022/10/13 00:39:36;;;;;;;3.38;1.23;;;;;;;18.50;100.00;99929.78;7394836;19;20575;-54
2022/10/13 00:42:03;;;;;;;2.38;1.20;;;;;;;18.59;100.00;99937.13;7395335;19;20019;-53
2022/10/13 00:45:00;;;;;;;0.52;0.22;;;;;;;18.74;100.00;99932.59;7391866;19;20019;-53
2022/10/13 00:47:40;;;;;;;4.10;0.93;;;;;;;18.78;100.00;99927.41;7392199;19;20475;-53
2022/10/13 00:50:11;;;;;;;4.30;1.13;;;;;;;18.81;100.00;99931.25;7391649;19;20045;-53
2022/10/13 00:52:40;;;;;;;3.05;1.40;;;;;;;18.98;100.00;99931.03;7391920;19;20014;-54
2022/10/13 00:55:09;;;;;;;1.30;0.80;;;;;;;18.91;100.00;99935.22;7390165;19;20035;-53
2022/10/13 00:57:38;;;;;;;5.57;0.82;;;;;;;19.04;100.00;99926.84;7391884;19;20093;-53
2022/10/13 01:00:06;;;;;;;4.55;1.27;;;;;;;19.06;100.00;99924.25;7392109;19;20463;-53
2022/10/13 01:02:36;;;;;;;0.88;0.70;;;;;;;18.97;100.00;99921.81;7390203;19;20018;-53
2022/10/13 01:05:06;;;;;;;2.70;0.95;;;;;;;18.83;100.00;99923.00;7390650;19;20017;-53
2022/10/13 01:07:34;;;;;;;1.60;0.73;;;;;;;18.79;100.00;99926.13;7390248;19;20751;-53
2022/10/13 01:10:01;;;;;;;5.25;1.08;;;;;;;18.77;100.00;99914.63;7390529;19;20044;-54
2022/10/13 01:12:49;;;;;;;0.60;0.38;;;;;;;18.70;100.00;99922.91;7392278;19;20026;-53
2022/10/13 01:15:43;;;;;;;6.07;1.35;;;;;;;18.61;100.00;99917.59;7388910;19;20459;-53
2022/10/13 01:18:35;;;;;;;3.20;0.47;;;;;;;18.58;100.00;99925.06;7392509;19;20018;-53
2022/10/13 01:21:42;;;;;;;1.77;0.77;;;;;;;18.34;100.00;99921.47;7390690;19;20036;-53
2022/10/13 01:24:33;;;;;;;3.47;1.00;;;;;;;17.88;100.00;99925.97;7391598;19;20074;-53
2022/10/13 01:27:05;;;;;;;6.45;1.30;;;;;;;17.98;100.00;99912.28;7390943;19;20021;-53
2022/10/13 01:29:56;;;;;;;1.00;0.43;;;;;;;17.89;100.00;99916.22;7396017;19;20011;-53
2022/10/13 01:32:41;;;;;;;4.55;1.27;;;;;;;17.98;100.00;99906.66;7392326;19;20439;-53
2022/10/13 01:35:13;;;;;;;3.78;1.00;;;;;;;17.93;100.00;99916.69;7390424;19;20010;-53
2022/10/13 01:37:51;;;;;;;3.03;0.90;;;;;;;17.66;100.00;99914.84;7390031;19;20006;-53
2022/10/13 01:40:57;;;;;;;3.20;0.47;;;;;;;17.71;100.00;99916.88;7391813;19;20014;-53
2022/10/13 01:43:37;;;;;;;0.90;0.68;;;;;;;17.81;100.00;99920.88;7386390;19;20018;-53
2022/10/13 01:46:11;;;;;;;5.80;0.93;;;;;;;17.93;100.00;99922.31;7392570;19;20018;-53
2022/10/13 01:48:39;;;;;;;2.88;1.33;;;;;;;18.04;100.00;99918.66;7394167;19;20011;-53
2022/10/13 01:51:10;;;;;;;1.60;0.55;;;;;;;17.93;100.00;99922.31;7389177;19;20015;-54
2022/10/13 01:53:37;;;;;;;9.70;1.00;;;;;;;17.69;100.00;99911.00;7390997;19;20014;-53
2022/10/13 01:56:03;;;;;;;2.47;0.85;;;;;;;17.66;100.00;99912.03;7388445;19;20038;-53
2022/10/13 01:58:34;;;;;;;1.60;1.00;;;;;;;17.55;100.00;99919.78;7390595;19;20477;-53
2022/10/13 02:01:15;;;;;;;3.78;2.20;;;;;;;17.59;100.00;99915.41;7388073;19;20030;-54
2022/10/13 02:03:57;;;;;;;0.40;0.40;;;;;;;17.46;100.00;99909.59;7390151;19;20038;-53
2022/10/13 02:06:52;;;;;;;4.07;1.33;;;;;;;17.29;100.00;99904.06;7388060;19;20021;-53
2022/10/13 02:09:38;;;;;;;2.42;0.95;;;;;;;17.13;100.00;99906.97;7390958;19;20011;-53
2022/10/13 02:12:09;;;;;;;2.78;0.82;;;;;;;17.18;100.00;99908.97;7388014;19;20042;-53
2022/10/13 02:14:41;;;;;;;3.33;1.33;;;;;;;17.31;100.00;99906.34;7385570;19;20477;-53
2022/10/13 02:17:08;;;;;;;2.95;1.52;;;;;;;17.25;100.00;99903.59;7388093;19;20567;-53
2022/10/13 02:19:38;;;;;;;1.40;0.98;;;;;;;17.34;100.00;99905.31;7392909;19;20015;-53
2022/10/13 02:22:07;;;;;;;2.92;1.45;;;;;;;17.59;100.00;99904.16;7388492;19;20356;-53
2022/10/13 02:24:33;;;;;;;1.38;0.80;;;;;;;17.52;100.00;99903.97;7388854;19;20015;-53
2022/10/13 02:26:59;;;;;;;2.47;1.38;;;;;;;17.60;100.00;99905.69;7387086;19;20030;-53
2022/10/13 02:29:25;;;;;;;4.50;1.30;;;;;;;17.85;100.00;99907.28;7393528;19;20022;-53
2022/10/13 02:31:53;;;;;;;4.57;0.75;;;;;;;17.99;100.00;99897.69;7388662;19;20011;-53
2022/10/13 02:34:19;;;;;;;2.50;1.02;;;;;;;18.06;100.00;99902.00;7386081;19;20359;-53
2022/10/13 02:36:46;;;;;;;5.35;1.52;;;;;;;17.91;100.00;99908.00;7391674;19;20086;-53
2022/10/13 02:39:12;;;;;;;1.50;0.63;;;;;;;17.95;100.00;99905.66;7390355;19;20066;-53
2022/10/13 02:41:38;;;;;;;2.42;0.80;;;;;;;18.27;100.00;99893.84;7387744;19;20030;-53
2022/10/13 02:44:05;;;;;;;4.00;0.98;;;;;;;18.22;100.00;99897.47;7387185;19;20010;-53
2022/10/13 02:46:40;;;;;;;1.52;0.88;;;;;;;18.19;100.00;99894.41;7388733;19;20017;-53
2022/10/13 02:49:06;;;;;;;3.55;1.10;;;;;;;18.35;100.00;99883.50;7388850;19;20031;-54
2022/10/13 02:51:33;;;;;;;3.67;2.17;;;;;;;18.07;100.00;99890.19;7387214;19;20021;-53
2022/10/13 02:53:59;;;;;;;1.92;1.70;;;;;;;18.35;100.00;99889.13;7392095;19;20361;-53
2022/10/13 02:56:25;;;;;;;4.97;0.85;;;;;;;18.44;100.00;99891.63;7392834;19;20414;-53
2022/10/13 02:58:51;;;;;;;4.50;1.50;;;;;;;18.36;100.00;99887.88;7395203;19;20015;-53
2022/10/13 03:01:17;;;;;;;4.53;0.93;;;;;;;18.24;100.00;99890.03;7395384;19;20011;-53
2022/10/13 03:03:43;;;;;;;6.35;0.85;;;;;;;18.18;100.00;99883.69;7395298;19;20026;-53
2022/10/13 03:06:09;;;;;;;2.25;1.27;;;;;;;18.07;100.00;99887.38;7395177;19;20403;-53
2022/10/13 03:08:36;;;;;;;4.03;1.27;;;;;;;18.01;100.00;99889.47;7394931;19;20010;-53
2022/10/13 03:11:02;;;;;;;4.25;1.80;;;;;;;18.08;100.00;99893.78;7398813;19;20434;-53
2022/10/13 03:13:29;;;;;;;3.92;0.75;;;;;;;18.03;100.00;99881.25;7394800;19;20011;-53
2022/10/13 03:16:02;;;;;;;2.05;0.63;;;;;;;18.04;100.00;99882.78;7397526;19;20014;-53
2022/10/13 03:18:29;;;;;;;7.43;1.83;;;;;;;18.01;100.00;99883.84;7402516;19;20469;-54
2022/10/13 03:21:00;;;;;;;1.67;1.13;;;;;;;17.89;100.00;99881.63;7399409;19;20029;-53
2022/10/13 03:23:26;;;;;;;1.02;0.93;;;;;;;17.96;100.00;99883.88;7399582;19;20404;-53
2022/10/13 03:25:53;;;;;;;0.57;0.57;;;;;;;18.08;100.00;99877.59;7399746;19;20015;-54
2022/10/13 03:28:21;;;;;;;0.73;0.63;;;;;;;18.11;100.00;99876.56;7399707;19;20042;-53
2022/10/13 03:31:08;;;;;;;2.97;1.13;;;;;;;17.93;100.00;99871.59;7397539;19;20035;-53
2022/10/13 03:33:34;;;;;;;5.03;0.50;;;;;;;18.05;100.00;99878.69;7394984;19;20010;-60
2022/10/13 03:36:03;;;;;;;2.50;2.00;;;;;;;17.95;100.00;99883.09;7398447;19;20011;-60
2022/10/13 03:38:31;;;;;;;3.72;1.80;;;;;;;17.95;100.00;99873.91;7398535;19;20022;-60
2022/10/13 03:41:02;;;;;;;2.13;0.80;;;;;;;18.00;100.00;99875.91;7403633;19;20002;-57
2022/10/13 03:43:44;;;;;;;2.28;0.93;;;;;;;17.99;100.00;99871.56;7398032;19;20015;-60
2022/10/13 03:46:15;;;;;;;3.00;1.10;;;;;;;17.94;100.00;99866.75;7395995;19;20021;-60
2022/10/13 03:48:41;;;;;;;;;;;;;;;17.91;100.00;99874.19;7399604;19;20072;-53
2022/10/13 03:51:10;;;;;;;0.82;0.57;;;;;;;17.87;100.00;99879.34;7396989;19;19967;-60
2022/10/13 03:53:41;;;;;;;2.90;1.17;;;;;;;17.89;100.00;99876.75;7393101;19;20022;-60
2022/10/13 03:56:13;;;;;;;2.28;1.25;;;;;;;17.85;100.00;99870.66;7393089;19;20030;-60
2022/10/13 03:58:44;;;;;;;3.17;0.98;;;;;;;17.86;100.00;99869.38;7395550;19;20010;-60
2022/10/13 04:01:13;;;;;;;5.90;1.58;;;;;;;17.82;100.00;99871.69;7392513;19;20006;-60
2022/10/13 04:03:41;;;;;;;8.23;1.48;;;;;;;17.72;100.00;99867.69;7392177;19;20044;-60
2022/10/13 04:06:08;;;;;;;2.10;1.15;;;;;;;17.65;100.00;99873.16;7390890;19;20429;-60
2022/10/13 04:08:35;;;;;;;2.30;0.85;;;;;;;17.53;100.00;99871.69;7394868;19;20080;-60
2022/10/13 04:11:04;;;;;;;2.50;1.08;;;;;;;17.40;100.00;99870.22;7396170;19;20062;-60
2022/10/13 04:13:31;;;;;;;1.42;0.40;;;;;;;17.41;100.00;99865.34;7392352;19;20381;-61
2022/10/13 04:16:05;;;;;;;2.25;1.38;;;;;;;17.35;100.00;99876.63;7392405;19;20030;-60
2022/10/13 04:18:32;;;;;;;2.65;1.20;;;;;;;17.28;100.00;99862.38;7394801;19;20570;-60
2022/10/13 04:20:58;;;;;;;1.30;1.20;;;;;;;17.29;100.00;99866.69;7391048;19;20038;-60
2022/10/13 04:23:24;;;;;;;4.18;1.35;;;;;;;17.23;100.00;99863.94;7391580;19;20018;-60
2022/10/13 04:25:50;;;;;;;3.22;1.05;;;;;;;17.28;100.00;99862.38;7392009;19;20502;-60
2022/10/13 04:28:16;;;;;;;3.15;1.27;;;;;;;17.31;100.00;99867.72;7393870;19;20013;-60
2022/10/13 04:30:43;;;;;;;2.35;0.88;;;;;;;17.36;100.00;99866.16;7391429;19;20010;-60
2022/10/13 04:33:09;;;;;;;1.17;0.82;;;;;;;17.38;100.00;99866.38;7392180;19;20014;-60
2022/10/13 04:35:41;;;;;;;2.30;1.10;;;;;;;17.57;100.00;99872.94;7390566;19;20751;-60
2022/10/13 04:38:08;;;;;;;6.25;1.48;;;;;;;17.77;100.00;99880.97;7392643;19;20088;-60
2022/10/13 04:40:34;;;;;;;3.20;0.73;;;;;;;17.90;100.00;99869.09;7391825;19;20019;-60
2022/10/13 04:43:00;;;;;;;2.38;1.20;;;;;;;17.74;100.00;99865.13;7391809;19;20021;-60
2022/10/13 04:45:27;;;;;;;7.05;1.35;;;;;;;17.78;100.00;99854.31;7391155;19;20042;-60
2022/10/13 04:47:53;;;;;;;5.13;1.92;;;;;;;17.76;100.00;99851.25;7391901;19;20026;-60
2022/10/13 04:50:21;;;;;;;3.00;1.27;;;;;;;17.69;100.00;99846.22;7391424;19;20030;-60
2022/10/13 04:52:58;;;;;;;1.30;1.23;;;;;;;17.48;100.00;99853.50;7391831;19;20046;-60
2022/10/13 04:55:24;;;;;;;3.67;1.10;;;;;;;17.55;100.00;99847.34;7390882;19;20014;-60
2022/10/13 04:57:50;;;;;;;1.95;1.23;;;;;;;17.59;100.00;99847.06;7391556;19;20007;-60
2022/10/13 05:00:17;;;;;;;4.63;1.83;;;;;;;17.82;100.00;99849.16;7389148;19;20494;-60
2022/10/13 05:02:43;;;;;;;1.55;1.08;;;;;;;17.69;100.00;99849.03;7391595;19;20014;-60
2022/10/13 05:05:09;;;;;;;1.63;1.17;;;;;;;17.57;100.00;99849.63;7391281;19;20038;-60
2022/10/13 05:07:35;;;;;;;8.23;1.48;;;;;;;17.61;100.00;99850.88;7391863;19;20098;-60
2022/10/13 05:10:02;;;;;;;1.38;1.20;;;;;;;17.75;100.00;99849.75;7392535;19;20002;-60
2022/10/13 05:12:28;;;;;;;1.90;1.33;;;;;;;17.56;100.00;99854.53;7390220;19;20074;-60
2022/10/13 05:14:54;;;;;;;2.75;1.30;;;;;;;17.54;100.00;99851.47;7388745;19;20104;-60
2022/10/13 05:17:20;;;;;;;5.53;1.77;;;;;;;17.53;100.00;99846.34;7389395;19;20031;-60
2022/10/13 05:19:48;;;;;;;2.55;1.35;;;;;;;17.76;100.00;99851.25;7390453;19;20385;-60
2022/10/13 05:22:14;;;;;;;3.10;1.55;;;;;;;17.82;100.00;99854.78;7389731;19;20110;-60
2022/10/13 05:24:40;;;;;;;0.93;0.40;;;;;;;17.79;100.00;99861.50;7390411;19;20021;-60
2022/10/13 05:27:11;;;;;;;2.03;0.57;;;;;;;17.89;100.00;99865.50;7390235;19;20343;-60
2022/10/13 05:29:38;;;;;;;;;;;;;;;18.03;100.00;99867.16;7395393;19;20048;-60
2022/10/13 05:32:05;;;;;;;9.70;1.60;;;;;;;18.02;100.00;99868.44;7390421;19;19929;-60
2022/10/13 05:34:31;;;;;;;3.90;1.48;;;;;;;17.88;100.00;99863.97;7389157;19;20034;-60
2022/10/13 05:37:00;;;;;;;4.72;1.52;;;;;;;17.85;100.00;99864.25;7392096;19;20050;-60
2022/10/13 05:39:27;;;;;;;4.30;1.77;;;;;;;17.51;100.00;99874.25;7391806;19;20471;-60
2022/10/13 05:41:53;;;;;;;1.05;0.57;;;;;;;17.62;100.00;99874.94;7386888;19;20014;-60
2022/10/13 05:44:23;;;;;;;4.45;1.10;;;;;;;17.52;100.00;99875.81;7388170;19;20010;-60
2022/10/13 05:46:52;;;;;;;2.53;1.33;;;;;;;17.35;100.00;99881.50;7387930;19;20041;-60
2022/10/13 05:49:19;;;;;;;4.95;1.75;;;;;;;17.15;100.00;99882.63;7391644;19;20376;-60
2022/10/13 05:51:48;;;;;;;0.95;0.57;;;;;;;16.94;100.00;99887.09;7388409;19;20049;-60
2022/10/13 05:54:18;;;;;;;8.23;2.95;;;;;;;16.98;100.00;99890.41;7388451;19;20010;-60
2022/10/13 05:56:51;;;;;;;0.95;0.88;;;;;;;17.08;100.00;99890.88;7388577;19;20014;-60
2022/10/13 05:59:20;;;;;;;13.20;2.78;;;;;;;17.03;100.00;99892.44;7393330;19;20022;-60
2022/10/13 06:01:46;;;;;;;36.63;6.00;;;;;;;17.03;100.00;99886.03;7389387;19;20006;-60
2022/10/13 06:04:19;;;;;;;4.70;1.92;;;;;;;17.09;100.00;99878.31;7389315;19;20006;-60
2022/10/13 06:06:47;;;;;;;9.07;3.42;;;;;;;16.94;100.00;99886.31;7389768;19;20018;-60
2022/10/13 06:09:13;;;;;;;15.60;3.42;;;;;;;16.66;100.00;99881.59;7392729;19;20014;-60
2022/10/13 06:11:40;;;;;;;11.63;3.05;;;;;;;16.55;100.00;99864.75;7390302;19;20019;-60
2022/10/13 06:14:07;;;;;;;3.80;1.65;;;;;;;16.58;100.00;99863.75;7388263;19;20032;-60
2022/10/13 06:16:36;;;;;;;7.68;1.40;;;;;;;16.47;100.00;99860.94;7387821;19;20022;-60
2022/10/13 06:19:04;;;;;;;2.00;0.98;;;;;;;16.34;100.00;99855.09;7391741;19;20022;-59
2022/10/13 06:21:30;;;;;;;3.20;2.22;;;;;;;16.28;100.00;99857.16;7385848;19;20018;-59
2022/10/13 06:23:56;;;;;;;5.90;1.63;;;;;;;16.18;100.00;99850.25;7389858;19;20018;-59
2022/10/13 06:26:22;;;;;;;33.90;4.63;;;;;;;16.14;100.00;99846.19;7388890;19;20011;-59
2022/10/13 06:28:49;;;;;;;11.68;2.78;;;;;;;16.07;100.00;99841.84;7398912;19;20052;-60
2022/10/13 06:31:15;;;;;;;4.30;1.88;;;;;;;15.98;100.00;99839.34;7397470;19;20018;-60
2022/10/13 06:33:41;;;;;;;2.95;1.65;;;;;;;16.24;100.00;99827.78;7395756;19;20141;-60
2022/10/13 06:36:08;;;;;;;5.35;1.92;;;;;;;16.36;100.00;99838.47;7398393;19;20443;-60
2022/10/13 06:38:34;;;;;;;4.15;1.27;;;;;;;16.59;100.00;99836.38;7396867;19;20616;-59
2022/10/13 06:41:02;;;;;;;17.10;4.07;;;;;;;16.64;100.00;99850.41;7400064;19;20103;-60
2022/10/13 06:43:32;;;;;;;13.73;1.90;;;;;;;16.96;100.00;99852.81;7396700;19;20081;-53
2022/10/13 06:46:01;;;;;;;2.88;1.48;;;;;;;16.94;100.00;99844.13;7396196;19;20023;-53
2022/10/13 06:48:28;;;;;;;5.45;2.17;;;;;;;17.07;100.00;99835.88;7397742;19;20094;-53
2022/10/13 06:50:55;;;;;;;4.10;1.83;;;;;;;16.87;100.00;99833.44;7393351;19;20344;-52
2022/10/13 06:53:21;;;;;;;2.88;2.50;;;;;;;16.87;100.00;99839.81;7395124;19;20006;-52
2022/10/13 06:55:47;;;;;;;1.92;1.00;;;;;;;16.96;100.00;99847.19;7393225;19;20025;-53
2022/10/13 06:58:13;;;;;;;5.45;0.95;;;;;;;17.09;100.00;99855.81;7397192;19;20017;-53
2022/10/13 07:00:40;;;;;;;1.33;1.23;;;;;;;17.03;100.00;99863.53;7395609;19;20018;-53
2022/10/13 07:03:06;;;;;;;14.80;1.83;;;;;;;17.11;100.00;99865.28;7394418;19;20496;-53
2022/10/13 07:05:32;;;;;;;4.65;2.67;;;;;;;17.37;100.00;99864.84;7397337;19;20041;-52
2022/10/13 07:07:58;;;;;;;10.90;1.58;;;;;;;17.30;100.00;99868.25;7397457;19;20014;-52
2022/10/13 07:10:24;;;;;;;3.38;2.38;;;;;;;17.30;100.00;99865.44;7396930;19;20023;-52
2022/10/13 07:12:50;;;;;;;1.55;0.88;;;;;;;17.38;100.00;99864.34;7398476;19;20018;-51
2022/10/13 07:15:16;;;;;;;1.13;0.57;;;;;;;17.34;100.00;99854.66;7396404;19;20006;-52
2022/10/13 07:17:43;;;;;;;9.30;1.45;;;;;;;17.38;100.00;99855.91;7397093;19;20007;-53
2022/10/13 07:20:09;;;;;;;0.28;0.28;;;;;;;17.25;100.00;99857.78;7397590;19;20021;-52
2022/10/13 07:22:35;;;;;;;1.05;0.95;;;;;;;17.42;100.00;99864.06;7399541;19;20031;-52
2022/10/13 07:25:01;;;;;;;5.93;1.63;;;;;;;17.58;100.00;99863.22;7395062;19;20031;-52
2022/10/13 07:27:27;;;;;;;2.67;0.47;;;;;;;17.48;100.00;99847.88;7396068;19;20017;-52
2022/10/13 07:29:54;;;;;;;4.55;1.33;;;;;;;17.39;100.00;99851.00;7397891;19;20467;-52
2022/10/13 07:32:20;;;;;;;23.98;1.27;;;;;;;17.36;100.00;99846.44;7394698;19;20014;-52
2022/10/13 07:34:46;;;;;;;22.73;2.10;;;;;;;17.47;100.00;99846.38;7393145;19;20467;-52
2022/10/13 07:37:13;;;;;;;1.85;0.95;;;;;;;17.60;100.00;99849.38;7398327;19;20022;-52
2022/10/13 07:39:39;;;;;;;3.38;1.73;;;;;;;17.66;100.00;99852.91;7395995;19;20454;-53
2022/10/13 07:42:05;;;;;;;2.72;1.17;;;;;;;17.77;100.00;99854.84;7394280;19;20006;-52
2022/10/13 07:44:31;;;;;;;2.53;1.60;;;;;;;17.77;100.00;99846.41;7393399;19;20011;-52
2022/10/13 07:46:57;;;;;;;2.20;1.42;;;;;;;17.85;100.00;99842.47;7394027;19;20082;-52
2022/10/13 07:49:23;;;;;;;2.20;1.08;;;;;;;17.94;100.00;99836.50;7397908;19;20516;-51
2022/10/13 07:51:50;;;;;;;8.77;0.85;;;;;;;17.97;100.00;99835.47;7391955;19;20015;-52
2022/10/13 07:54:18;;;;;;;4.63;1.77;;;;;;;17.79;100.00;99841.78;7393232;19;20087;-52
2022/10/13 07:56:44;;;;;;;2.38;0.68;;;;;;;17.70;100.00;99847.75;7394264;19;20546;-52
2022/10/13 07:59:11;;;;;;;3.53;2.05;;;;;;;17.57;100.00;99844.78;7397354;19;20026;-52
2022/10/13 08:01:37;;;;;;;5.38;1.73;;;;;;;17.41;100.00;99837.94;7392958;19;20042;-52
2022/10/13 08:04:03;;;;;;;6.97;1.58;;;;;;;17.57;100.00;99835.56;7392844;19;20348;-52
2022/10/13 08:12:35;;;;;;;1.75;0.68;;;;;;;16.40;100.00;99841.78;7421933;19;20425;-85
2022/10/13 08:15:03;;;;;;;1.25;0.43;;;;;;;16.95;100.00;99828.78;7425573;19;20006;-84
2022/10/13 08:17:30;;;;;;;5.20;1.08;;;;;;;17.12;100.00;99832.28;7424417;19;20352;-84
2022/10/13 08:19:56;;;;;;;4.45;1.55;;;;;;;17.33;100.00;99839.03;7423569;19;20369;-88
2022/10/13 08:22:26;;;;;;;0.40;0.40;;;;;;;17.46;100.00;99842.00;7425602;19;20348;-85
2022/10/13 08:24:52;;;;;;;7.57;0.90;;;;;;;17.39;100.00;99834.88;7422599;19;20408;-85
2022/10/13 08:27:21;;;;;;;2.25;1.10;;;;;;;17.33;100.00;99848.25;7423591;19;20424;-85
2022/10/13 08:29:48;;;;;;;1.55;0.65;;;;;;;17.36;100.00;99849.25;7425382;19;20022;-85
2022/10/13 08:32:14;;;;;;;1.33;1.25;;;;;;;17.17;100.00;99857.53;7423080;19;20089;-83
2022/10/13 08:34:41;;;;;;;3.13;1.27;;;;;;;17.14;100.00;99860.66;7422701;19;20014;-83
2022/10/13 08:37:15;;;;;;;11.23;1.77;;;;;;;17.41;100.00;99865.34;7423697;19;20011;-85
2022/10/13 08:39:42;;;;;;;1.77;0.73;;;;;;;17.30;100.00;99871.81;7429835;19;20028;-85
2022/10/13 08:42:20;;;;;;;5.15;1.92;;;;;;;17.03;100.00;99869.94;7426103;19;20044;-85
2022/10/13 08:45:01;;;;;;;0.25;0.25;;;;;;;16.96;100.00;99867.66;7425984;19;20022;-84
2022/10/13 08:47:51;;;;;;;0.77;0.77;;;;;;;17.12;100.00;99866.03;7427326;19;20031;-85
2022/10/13 08:50:23;;;;;;;5.85;1.17;;;;;;;17.16;100.00;99860.91;7423760;19;20033;-84
2022/10/13 08:52:49;;;;;;;1.50;0.85;;;;;;;16.93;100.00;99859.50;7425589;19;20039;-85
2022/10/13 08:55:40;;;;;;;2.42;1.80;;;;;;;17.37;100.00;99864.84;7423746;19;20078;-86
2022/10/13 08:58:15;;;;;;;0.43;0.30;;;;;;;17.38;100.00;99867.16;7424901;19;20018;-83
2022/10/13 09:00:41;;;;;;;4.57;1.55;;;;;;;17.40;100.00;99866.63;7424472;19;20014;-83
2022/10/13 09:03:21;;;;;;;2.47;1.38;;;;;;;17.46;100.00;99878.59;7424481;19;20018;-82
2022/10/13 09:06:01;;;;;;;1.10;0.98;;;;;;;17.29;100.00;99881.53;7420826;19;20027;-83
2022/10/13 09:08:35;;;;;;;0.20;0.20;;;;;;;17.37;100.00;99888.13;7426707;19;20372;-83
2022/10/13 09:11:01;;;;;;;1.23;0.35;;;;;;;17.28;100.00;99891.25;7423743;19;20280;-85
2022/10/13 09:13:27;;;;;;;1.00;0.75;;;;;;;17.28;100.00;99894.06;7426474;19;20387;-84
2022/10/13 09:15:55;;;;;;;0.28;0.28;;;;;;;17.21;100.00;99891.84;7422173;19;20022;-84
2022/10/13 09:18:27;;;;;;;1.67;1.27;;;;;;;17.24;100.00;99895.63;7424538;19;20748;-82
2022/10/13 09:21:09;;;;;;;0.57;0.57;;;;;;;17.35;100.00;99896.34;7421512;19;20377;-83
2022/10/13 09:23:35;;;;;;;0.43;0.28;;;;;;;17.42;100.00;99895.78;7394474;19;20022;-83
2022/10/13 09:26:07;;;;;;;0.57;0.55;;;;;;;17.35;100.00;99884.31;7392821;19;20352;-82
2022/10/13 09:28:34;;;;;;;0.50;0.40;;;;;;;17.27;100.00;99886.16;7391469;19;20082;-83
2022/10/13 09:31:14;;;;;;;0.82;0.22;;;;;;;17.27;100.00;99891.78;7389299;19;20018;-81
2022/10/13 09:33:40;;;;;;;0.20;0.20;;;;;;;17.28;100.00;99890.53;7389934;19;20428;-83
2022/10/13 09:36:13;;;;;;;0.47;0.47;;;;;;;17.18;100.00;99886.47;7391828;19;20022;-83
2022/10/13 09:38:43;;;;;;;0.20;0.20;;;;;;;17.32;100.00;99885.38;7392591;19;20022;-83
2022/10/13 09:41:18;;;;;;;0.40;0.40;;;;;;;17.35;100.00;99873.06;7390132;19;20018;-84
2022/10/13 09:43:45;;;;;;;7.10;0.85;;;;;;;17.48;100.00;99875.28;7387097;19;20022;-84
2022/10/13 09:46:25;;;;;;;2.72;0.38;;;;;;;17.51;100.00;99885.53;7391325;19;20528;-84
2022/10/13 09:48:54;;;;;;;0.40;0.40;;;;;;;17.50;100.00;99884.75;7394692;19;20022;-84
2022/10/13 09:51:40;;;;;;;0.38;0.35;;;;;;;17.42;100.00;99881.72;7386819;19;20018;-83
2022/10/13 09:54:44;;;;;;;0.28;0.10;;;;;;;17.15;100.00;99876.25;7387588;19;20042;-83
2022/10/13 09:57:34;;;;;;;0.20;0.20;;;;;;;17.15;100.00;99873.44;7389754;19;20356;-83
2022/10/13 10:00:21;;;;;;;0.28;0.28;;;;;;;17.33;100.00;99876.41;7388533;19;20015;-84
2022/10/13 10:03:06;;;;;;;1.55;0.63;;;;;;;17.56;100.00;99868.59;7387734;19;20425;-84
2022/10/13 10:05:49;;;;;;;0.20;0.20;;;;;;;17.54;100.00;99874.00;7389050;19;20374;-84
2022/10/13 10:08:46;;;;;;;0.20;0.20;;;;;;;17.49;100.00;99865.53;7390371;19;20018;-84
2022/10/13 10:11:18;;;;;;;0.60;0.28;;;;;;;17.49;100.00;99871.19;7389114;19;20015;-86
2022/10/13 10:13:44;;;;;;;0.73;0.63;;;;;;;17.48;100.00;99867.59;7389267;19;20030;-90
2022/10/13 10:16:41;;;;;;;0.95;0.20;;;;;;;17.63;100.00;99853.94;7393476;19;20042;-86
2022/10/13 10:19:43;;;;;;;0.20;0.10;;;;;;;17.82;100.00;99862.50;7392987;19;20027;-86
2022/10/13 10:22:22;;;;;;;6.53;0.60;;;;;;;17.85;100.00;99865.03;7389469;19;20040;-88
2022/10/13 10:25:09;;;;;;;0.22;0.22;;;;;;;17.76;100.00;99868.16;7395353;19;20014;-93
2022/10/13 10:27:43;;;;;;;0.25;0.25;;;;;;;17.63;100.00;99882.09;7394034;19;20014;-60
2022/10/13 10:30:16;;;;;;;0.17;0.17;;;;;;;18.00;100.00;99868.22;7389990;19;20359;-59
2022/10/13 10:32:43;;;;;;;1.15;0.63;;;;;;;18.28;100.00;99862.28;7392865;19;20014;-60
2022/10/13 10:35:23;;;;;;;0.50;0.32;;;;;;;18.31;100.00;99866.13;7388450;19;20002;-60
2022/10/13 10:38:30;;;;;;;0.40;0.38;;;;;;;18.44;100.00;99866.22;7395204;19;20015;-60
2022/10/13 10:40:59;;;;;;;0.30;0.30;;;;;;;18.53;100.00;99861.03;7393694;19;20018;-60
2022/10/13 10:43:32;;;;;;;0.32;0.30;;;;;;;18.70;100.00;99858.78;7396442;19;20022;-59
2022/10/13 10:45:59;;;;;;;0.10;0.10;;;;;;;18.66;100.00;99863.97;7393361;19;20010;-59
2022/10/13 10:48:36;;;;;;;0.77;0.77;;;;;;;18.68;100.00;99871.88;7394857;19;20011;-59
2022/10/13 10:51:07;;;;;;;1.05;0.65;;;;;;;18.70;100.00;99869.28;7392044;19;20121;-59
2022/10/13 10:53:47;;;;;;;0.43;0.30;;;;;;;18.46;100.00;99872.13;7393311;19;20021;-59
2022/10/13 10:56:28;;;;;;;0.10;0.10;;;;;;;18.56;100.00;99865.59;7392734;19;20102;-51
2022/10/13 10:59:29;;;;;;;0.38;0.38;;;;;;;18.78;100.00;99853.28;7393663;19;20344;-52
2022/10/13 11:02:39;;;;;;;0.98;0.95;;;;;;;18.86;100.00;99857.78;7389380;19;20039;-52
2022/10/13 11:05:06;;;;;;;0.55;0.45;;;;;;;18.57;100.00;99843.81;7385253;19;20010;-52
2022/10/13 11:07:32;;;;;;;1.60;0.25;;;;;;;18.86;100.00;99848.59;7387125;19;20011;-52
2022/10/13 11:09:58;;;;;;;0.93;0.45;;;;;;;18.85;100.00;99847.03;7389819;19;20003;-52
2022/10/13 11:12:43;;;;;;;0.43;0.30;;;;;;;18.95;100.00;99833.34;7391612;19;20002;-51
2022/10/13 11:15:13;;;;;;;4.47;0.30;;;;;;;18.96;100.00;99834.84;7387948;19;20010;-52
2022/10/13 11:17:40;;;;;;;1.75;0.68;;;;;;;18.93;100.00;99828.97;7388413;19;20003;-53
2022/10/13 11:20:23;;;;;;;6.10;1.33;;;;;;;18.95;100.00;99825.59;7390796;19;20014;-52
2022/10/13 11:22:58;;;;;;;2.17;0.52;;;;;;;18.94;100.00;99826.91;7391770;19;20006;-52
2022/10/13 11:25:41;;;;;;;0.47;0.45;;;;;;;18.95;100.00;99828.44;7391054;19;20093;-51
2022/10/13 11:28:19;;;;;;;0.32;0.25;;;;;;;18.98;100.00;99838.66;7391630;19;20010;-52
2022/10/13 11:30:50;;;;;;;1.00;0.55;;;;;;;18.99;100.00;99828.91;7389468;19;20015;-52
2022/10/13 11:33:51;;;;;;;0.10;0.10;;;;;;;19.01;100.00;99825.53;7391371;19;20030;-52
2022/10/13 11:36:47;;;;;;;0.43;0.40;;;;;;;19.00;100.00;99824.78;7392159;19;20070;-52
2022/10/13 11:39:28;;;;;;;1.50;0.50;;;;;;;19.39;100.00;99822.16;7393526;19;20014;-52
2022/10/13 11:42:18;;;;;;;9.23;0.65;;;;;;;19.62;100.00;99812.03;7391265;19;20052;-52
2022/10/13 11:44:56;;;;;;;6.88;1.45;;;;;;;19.65;100.00;99810.19;7388874;19;20014;-52
2022/10/13 11:47:48;;;;;;;6.00;0.47;;;;;;;19.79;100.00;99808.16;7388223;19;20021;-49
2022/10/13 11:50:41;;;;;;;0.35;0.30;;;;;;;20.04;100.00;99813.09;7389410;19;20026;-47